createdAt,value
2018-10-16T00:00:15.753Z,100.00
2018-10-16T00:01:43.197Z,100.00
2018-10-16T00:03:10.574Z,100.00
2018-10-16T00:04:38.064Z,100.00
2018-10-16T00:06:05.565Z,100.00
2018-10-16T00:07:33.195Z,100.00
2018-10-16T00:09:00.473Z,100.00
2018-10-16T00:10:27.757Z,100.00
2018-10-16T00:11:55.283Z,100.00
2018-10-16T00:13:22.485Z,100.00
2018-10-16T00:14:49.939Z,100.00
2018-10-16T00:16:17.418Z,100.00
2018-10-16T00:17:44.833Z,100.00
2018-10-16T00:19:12.115Z,100.00
2018-10-16T00:20:39.328Z,100.00
2018-10-16T00:22:06.724Z,100.00
2018-10-16T00:23:34.144Z,100.00
2018-10-16T00:25:01.642Z,100.00
2018-10-16T00:26:29.033Z,100.00
2018-10-16T00:27:56.481Z,100.00
2018-10-16T00:29:23.964Z,100.00
2018-10-16T00:30:51.550Z,100.00
2018-10-16T00:32:18.865Z,100.00
2018-10-16T00:33:46.164Z,100.00
2018-10-16T00:35:13.571Z,100.00
2018-10-16T00:36:40.866Z,100.00
2018-10-16T00:38:08.325Z,100.00
2018-10-16T00:39:35.864Z,100.00
2018-10-16T00:41:03.340Z,100.00
2018-10-16T00:42:33.669Z,100.00
2018-10-16T00:43:57.989Z,100.00
2018-10-16T00:45:25.411Z,100.00
2018-10-16T00:46:52.695Z,100.00
2018-10-16T00:48:20.213Z,100.00
2018-10-16T00:49:47.677Z,100.00
2018-10-16T00:51:15.056Z,100.00
2018-10-16T00:52:42.498Z,100.00
2018-10-16T00:54:09.830Z,100.00
2018-10-16T00:55:37.154Z,100.00
2018-10-16T00:57:04.504Z,100.00
2018-10-16T00:58:31.941Z,100.00
2018-10-16T00:59:59.435Z,100.00
2018-10-16T01:01:26.838Z,100.00
2018-10-16T01:02:54.179Z,100.00
2018-10-16T01:04:21.624Z,100.00
2018-10-16T01:05:48.973Z,100.00
2018-10-16T01:07:16.394Z,100.00
2018-10-16T01:08:43.644Z,100.00
2018-10-16T01:10:11.160Z,100.00
2018-10-16T01:11:38.489Z,100.00
2018-10-16T01:13:05.878Z,100.00
2018-10-16T01:14:33.252Z,100.00
2018-10-16T01:16:00.578Z,100.00
2018-10-16T01:17:28.116Z,100.00
2018-10-16T01:18:55.582Z,100.00
2018-10-16T01:20:22.931Z,100.00
2018-10-16T01:21:50.246Z,100.00
2018-10-16T01:23:17.620Z,100.00
2018-10-16T01:24:45.004Z,100.00
2018-10-16T01:26:12.393Z,100.00
2018-10-16T01:27:39.932Z,100.00
2018-10-16T01:29:07.302Z,100.00
2018-10-16T01:30:34.783Z,100.00
2018-10-16T01:32:02.191Z,100.00
2018-10-16T01:33:29.644Z,100.00
2018-10-16T01:34:57.021Z,100.00
2018-10-16T01:36:24.464Z,100.00
2018-10-16T01:37:51.811Z,100.00
2018-10-16T01:39:19.115Z,100.00
2018-10-16T01:40:46.674Z,100.00
2018-10-16T01:42:14.062Z,100.00
2018-10-16T01:43:41.331Z,100.00
2018-10-16T01:45:08.643Z,100.00
2018-10-16T01:46:36.048Z,100.00
2018-10-16T01:48:03.231Z,100.00
2018-10-16T01:49:30.569Z,100.00
2018-10-16T01:50:57.992Z,100.00
2018-10-16T01:52:25.321Z,100.00
2018-10-16T01:53:52.629Z,100.00
2018-10-16T01:55:19.897Z,100.00
2018-10-16T01:56:47.380Z,100.00
2018-10-16T01:58:14.960Z,100.00
2018-10-16T01:59:42.273Z,100.00
2018-10-16T02:01:09.664Z,100.00
2018-10-16T02:02:37.184Z,100.00
2018-10-16T02:04:04.486Z,100.00
2018-10-16T02:05:32.056Z,100.00
2018-10-16T02:06:59.408Z,100.00
2018-10-16T02:08:26.864Z,100.00
2018-10-16T02:09:54.282Z,100.00
2018-10-16T02:11:21.671Z,100.00
2018-10-16T02:12:49.102Z,100.00
2018-10-16T02:14:16.637Z,100.00
2018-10-16T02:15:44.065Z,100.00
2018-10-16T02:17:11.478Z,100.00
2018-10-16T02:18:38.621Z,100.00
2018-10-16T02:20:05.951Z,100.00
2018-10-16T02:21:33.388Z,100.00
2018-10-16T02:23:00.690Z,100.00
2018-10-16T02:24:27.976Z,100.00
2018-10-16T02:25:55.267Z,100.00
2018-10-16T02:27:22.687Z,100.00
2018-10-16T02:28:50.118Z,100.00
2018-10-16T02:30:17.445Z,100.00
2018-10-16T02:31:44.760Z,100.00
2018-10-16T02:33:12.201Z,100.00
2018-10-16T02:34:39.810Z,100.00
2018-10-16T02:36:07.078Z,100.00
2018-10-16T02:37:34.330Z,100.00
2018-10-16T02:39:01.752Z,100.00
2018-10-16T02:40:29.117Z,100.00
2018-10-16T02:41:56.399Z,100.00
2018-10-16T02:43:23.791Z,100.00
2018-10-16T02:44:51.179Z,100.00
2018-10-16T02:46:18.528Z,100.00
2018-10-16T02:47:45.922Z,100.00
2018-10-16T02:49:13.335Z,100.00
2018-10-16T02:50:40.834Z,100.00
2018-10-16T02:52:08.299Z,100.00
2018-10-16T02:53:35.378Z,100.00
2018-10-16T02:55:02.644Z,100.00
2018-10-16T02:56:30.024Z,100.00
2018-10-16T02:57:57.479Z,100.00
2018-10-16T02:59:24.909Z,100.00
2018-10-16T03:00:52.402Z,100.00
2018-10-16T03:02:19.884Z,100.00
2018-10-16T03:03:47.275Z,100.00
2018-10-16T03:05:14.683Z,100.00
2018-10-16T03:06:42.027Z,100.00
2018-10-16T03:08:09.395Z,100.00
2018-10-16T03:09:36.774Z,100.00
2018-10-16T03:11:04.067Z,100.00
2018-10-16T03:12:31.456Z,100.00
2018-10-16T03:13:58.834Z,100.00
2018-10-16T03:15:26.096Z,100.00
2018-10-16T03:16:53.569Z,100.00
2018-10-16T03:18:20.805Z,100.00
2018-10-16T03:19:48.200Z,100.00
2018-10-16T03:21:15.549Z,100.00
2018-10-16T03:22:42.935Z,100.00
2018-10-16T03:24:10.332Z,100.00
2018-10-16T03:25:37.831Z,100.00
2018-10-16T03:27:05.188Z,100.00
2018-10-16T03:28:32.539Z,100.00
2018-10-16T03:29:59.875Z,100.00
2018-10-16T03:31:27.298Z,100.00
2018-10-16T03:32:54.429Z,100.00
2018-10-16T03:34:21.837Z,100.00
2018-10-16T03:35:49.171Z,100.00
2018-10-16T03:37:16.539Z,100.00
2018-10-16T03:38:43.927Z,100.00
2018-10-16T03:40:11.005Z,100.00
2018-10-16T03:41:38.364Z,100.00
2018-10-16T03:43:05.702Z,100.00
2018-10-16T03:44:33.133Z,100.00
2018-10-16T03:46:00.393Z,100.00
2018-10-16T03:47:27.901Z,100.00
2018-10-16T03:48:55.277Z,100.00
2018-10-16T03:50:22.608Z,100.00
2018-10-16T03:51:50.089Z,100.00
2018-10-16T03:53:17.670Z,100.00
2018-10-16T03:54:45.021Z,100.00
2018-10-16T03:56:12.440Z,100.00
2018-10-16T03:57:39.760Z,100.00
2018-10-16T03:59:07.077Z,100.00
2018-10-16T04:00:34.455Z,100.00
2018-10-16T04:02:01.662Z,100.00
2018-10-16T04:03:29.100Z,100.00
2018-10-16T04:04:56.473Z,100.00
2018-10-16T04:06:23.780Z,100.00
2018-10-16T04:07:51.052Z,100.00
2018-10-16T04:09:18.344Z,100.00
2018-10-16T04:10:45.748Z,100.00
2018-10-16T04:12:13.153Z,100.00
2018-10-16T04:13:40.490Z,100.00
2018-10-16T04:15:07.754Z,100.00
2018-10-16T04:16:35.019Z,100.00
2018-10-16T04:18:02.406Z,100.00
2018-10-16T04:19:29.710Z,100.00
2018-10-16T04:20:56.967Z,100.00
2018-10-16T04:22:24.408Z,100.00
2018-10-16T04:23:51.913Z,100.00
2018-10-16T04:25:19.343Z,100.00
2018-10-16T04:26:46.688Z,100.00
2018-10-16T04:28:14.057Z,100.00
2018-10-16T04:29:41.462Z,100.00
2018-10-16T04:31:08.766Z,100.00
2018-10-16T04:32:36.235Z,100.00
2018-10-16T04:34:03.617Z,100.00
2018-10-16T04:35:31.090Z,100.00
2018-10-16T04:36:58.409Z,100.00
2018-10-16T04:38:25.678Z,100.00
2018-10-16T04:39:53.094Z,100.00
2018-10-16T04:41:20.279Z,100.00
2018-10-16T04:42:47.750Z,100.00
2018-10-16T04:44:15.137Z,100.00
2018-10-16T04:45:42.548Z,100.00
2018-10-16T04:47:10.003Z,100.00
2018-10-16T04:48:37.455Z,100.00
2018-10-16T04:50:04.747Z,100.00
2018-10-16T04:51:32.085Z,100.00
2018-10-16T04:52:59.429Z,100.00
2018-10-16T04:54:26.631Z,100.00
2018-10-16T04:55:54.029Z,100.00
2018-10-16T04:57:21.393Z,100.00
2018-10-16T04:58:48.830Z,100.00
2018-10-16T05:00:16.140Z,100.00
2018-10-16T05:01:43.520Z,100.00
2018-10-16T05:03:10.819Z,100.00
2018-10-16T05:04:38.283Z,100.00
2018-10-16T05:06:05.557Z,100.00
2018-10-16T05:07:32.937Z,100.00
2018-10-16T05:09:00.333Z,100.00
2018-10-16T05:10:27.515Z,100.00
2018-10-16T05:11:54.916Z,100.00
2018-10-16T05:13:22.244Z,100.00
2018-10-16T05:14:49.590Z,100.00
2018-10-16T05:16:16.859Z,100.00
2018-10-16T05:17:44.200Z,100.00
2018-10-16T05:19:11.590Z,100.00
2018-10-16T05:20:38.780Z,100.00
2018-10-16T05:22:06.134Z,100.00
2018-10-16T05:23:33.297Z,100.00
2018-10-16T05:25:00.417Z,100.00
2018-10-16T05:26:27.798Z,100.00
2018-10-16T05:27:55.263Z,100.00
2018-10-16T05:29:22.572Z,100.00
2018-10-16T05:30:49.903Z,100.00
2018-10-16T05:32:17.273Z,100.00
2018-10-16T05:33:44.854Z,100.00
2018-10-16T05:35:12.481Z,100.00
2018-10-16T05:36:39.795Z,100.00
2018-10-16T05:38:07.374Z,100.00
2018-10-16T05:39:34.649Z,100.00
2018-10-16T05:41:01.987Z,100.00
2018-10-16T05:42:29.406Z,100.00
2018-10-16T05:43:56.793Z,100.00
2018-10-16T05:45:24.072Z,100.00
2018-10-16T05:46:51.431Z,100.00
2018-10-16T05:48:18.804Z,100.00
2018-10-16T05:49:46.216Z,100.00
2018-10-16T05:51:13.548Z,100.00
2018-10-16T05:52:40.818Z,100.00
2018-10-16T05:54:08.530Z,100.00
2018-10-16T05:55:35.804Z,100.00
2018-10-16T05:57:03.154Z,100.00
2018-10-16T05:58:30.681Z,100.00
2018-10-16T05:59:57.925Z,100.00
2018-10-16T06:01:25.477Z,100.00
2018-10-16T06:02:52.937Z,100.00
2018-10-16T06:04:20.162Z,100.00
2018-10-16T06:05:47.544Z,100.00
2018-10-16T06:07:14.780Z,100.00
2018-10-16T06:08:41.766Z,100.00
2018-10-16T06:10:12.094Z,100.00
2018-10-16T06:11:36.352Z,100.00
2018-10-16T06:13:03.756Z,100.00
2018-10-16T06:14:31.081Z,100.00
2018-10-16T06:15:58.252Z,100.00
2018-10-16T06:17:25.708Z,100.00
2018-10-16T06:18:53.069Z,100.00
2018-10-16T06:20:20.489Z,100.00
2018-10-16T06:21:47.722Z,100.00
2018-10-16T06:23:15.083Z,100.00
2018-10-16T06:24:42.319Z,100.00
2018-10-16T06:26:09.608Z,100.00
2018-10-16T06:27:36.999Z,100.00
2018-10-16T06:29:04.276Z,100.00
2018-10-16T06:30:31.708Z,100.00
2018-10-16T06:31:59.071Z,100.00
2018-10-16T06:33:26.645Z,100.00
2018-10-16T06:34:53.802Z,100.00
2018-10-16T06:36:21.204Z,100.00
2018-10-16T06:37:48.600Z,100.00
2018-10-16T06:39:15.909Z,100.00
2018-10-16T06:40:43.284Z,100.00
2018-10-16T06:42:10.439Z,100.00
2018-10-16T06:43:37.851Z,100.00
2018-10-16T06:45:05.337Z,100.00
2018-10-16T06:46:32.555Z,100.00
2018-10-16T06:47:59.814Z,100.00
2018-10-16T06:49:27.235Z,100.00
2018-10-16T06:50:54.362Z,100.00
2018-10-16T06:52:21.777Z,100.00
2018-10-16T06:53:49.223Z,100.00
2018-10-16T06:55:16.572Z,100.00
2018-10-16T06:56:43.825Z,100.00
2018-10-16T06:58:11.232Z,100.00
2018-10-16T06:59:38.510Z,100.00
2018-10-16T07:01:05.601Z,100.00
2018-10-16T07:02:32.923Z,100.00
2018-10-16T07:04:00.163Z,100.00
2018-10-16T07:05:27.491Z,100.00
2018-10-16T07:06:55.176Z,100.00
2018-10-16T07:08:21.861Z,100.00
2018-10-16T07:09:49.228Z,100.00
2018-10-16T07:11:16.571Z,100.00
2018-10-16T07:12:43.909Z,100.00
2018-10-16T07:14:11.009Z,100.00
2018-10-16T07:15:38.446Z,100.00
2018-10-16T07:17:05.688Z,100.00
2018-10-16T07:18:33.014Z,100.00
2018-10-16T07:20:00.284Z,100.00
2018-10-16T07:21:27.594Z,100.00
2018-10-16T07:22:54.961Z,100.00
2018-10-16T07:24:22.303Z,100.00
2018-10-16T07:25:49.617Z,100.00
2018-10-16T07:27:17.003Z,100.00
2018-10-16T07:28:44.442Z,100.00
2018-10-16T07:30:11.923Z,100.00
2018-10-16T07:31:39.091Z,100.00
2018-10-16T07:33:06.460Z,100.00
2018-10-16T07:34:33.785Z,100.00
2018-10-16T07:36:01.192Z,100.00
2018-10-16T07:37:28.603Z,100.00
2018-10-16T07:38:55.857Z,100.00
2018-10-16T07:40:23.033Z,100.00
2018-10-16T07:41:50.600Z,100.00
2018-10-16T07:43:17.826Z,100.00
2018-10-16T07:44:45.159Z,100.00
2018-10-16T07:46:12.505Z,100.00
2018-10-16T07:47:39.784Z,100.00
2018-10-16T07:49:06.566Z,100.00
2018-10-16T07:50:33.867Z,100.00
2018-10-16T07:52:01.319Z,100.00
2018-10-16T07:53:27.575Z,100.00
2018-10-16T07:54:54.922Z,100.00
2018-10-16T07:56:21.927Z,100.00
2018-10-16T07:57:49.263Z,100.00
2018-10-16T07:59:16.815Z,100.00
2018-10-16T08:00:43.510Z,100.00
2018-10-16T08:02:10.779Z,100.00
2018-10-16T08:03:38.192Z,100.00
2018-10-16T08:05:05.445Z,100.00
2018-10-16T08:06:32.675Z,100.00
2018-10-16T08:07:59.975Z,100.00
2018-10-16T08:09:30.246Z,100.00
2018-10-16T08:10:54.832Z,100.00
2018-10-16T08:12:22.085Z,100.00
2018-10-16T08:13:49.431Z,100.00
2018-10-16T08:15:16.828Z,100.00
2018-10-16T08:16:44.192Z,100.00
2018-10-16T08:18:11.494Z,100.00
2018-10-16T08:19:38.892Z,100.00
2018-10-16T08:21:06.239Z,100.00
2018-10-16T08:22:33.741Z,100.00
2018-10-16T08:24:00.870Z,100.00
2018-10-16T08:25:28.237Z,100.00
2018-10-16T08:26:55.969Z,100.00
2018-10-16T08:28:23.161Z,100.00
2018-10-16T08:29:50.656Z,100.00
2018-10-16T08:31:17.995Z,100.00
2018-10-16T08:32:45.393Z,100.00
2018-10-16T08:34:12.914Z,100.00
2018-10-16T08:35:40.252Z,100.00
2018-10-16T08:37:07.634Z,100.00
2018-10-16T08:38:34.945Z,100.00
2018-10-16T08:40:02.402Z,100.00
2018-10-16T08:41:29.904Z,100.00
2018-10-16T08:42:57.214Z,100.00
2018-10-16T08:44:24.555Z,100.00
2018-10-16T08:45:51.928Z,100.00
2018-10-16T08:47:19.505Z,100.00
2018-10-16T08:48:46.801Z,100.00
2018-10-16T08:50:14.030Z,100.00
2018-10-16T08:51:41.308Z,100.00
2018-10-16T08:53:08.771Z,100.00
2018-10-16T08:54:36.136Z,100.00
2018-10-16T08:56:03.504Z,100.00
2018-10-16T08:57:30.902Z,100.00
2018-10-16T08:58:58.110Z,100.00
2018-10-16T09:00:25.671Z,100.00
2018-10-16T09:01:52.754Z,100.00
2018-10-16T09:03:19.888Z,100.00
2018-10-16T09:04:47.085Z,100.00
2018-10-16T09:06:14.729Z,100.00
2018-10-16T09:07:42.018Z,100.00
2018-10-16T09:09:09.470Z,100.00
2018-10-16T09:10:36.692Z,100.00
2018-10-16T09:12:03.832Z,100.00
2018-10-16T09:13:31.279Z,100.00
2018-10-16T09:14:58.849Z,100.00
2018-10-16T09:16:26.189Z,100.00
2018-10-16T09:17:53.595Z,100.00
2018-10-16T09:19:21.101Z,100.00
2018-10-16T09:20:48.650Z,100.00
2018-10-16T09:22:15.955Z,100.00
2018-10-16T09:23:43.519Z,100.00
2018-10-16T09:25:11.193Z,100.00
2018-10-16T09:26:38.617Z,100.00
2018-10-16T09:28:06.109Z,100.00
2018-10-16T09:29:33.520Z,100.00
2018-10-16T09:31:00.640Z,100.00
2018-10-16T09:32:27.994Z,100.00
2018-10-16T09:33:55.142Z,100.00
2018-10-16T09:35:22.676Z,100.00
2018-10-16T09:36:50.095Z,100.00
2018-10-16T09:38:17.370Z,100.00
2018-10-16T09:39:44.278Z,100.00
2018-10-16T09:41:11.379Z,100.00
2018-10-16T09:42:38.455Z,100.00
2018-10-16T09:44:05.957Z,100.00
2018-10-16T09:45:33.257Z,100.00
2018-10-16T09:47:00.175Z,100.00
2018-10-16T09:48:27.154Z,100.00
2018-10-16T09:49:54.543Z,100.00
2018-10-16T09:51:21.892Z,100.00
2018-10-16T09:52:49.016Z,100.00
2018-10-16T09:54:16.256Z,100.00
2018-10-16T09:55:43.489Z,100.00
2018-10-16T09:57:10.713Z,100.00
2018-10-16T09:58:37.609Z,100.00
2018-10-16T10:00:04.738Z,100.00
2018-10-16T10:01:31.694Z,100.00
2018-10-16T10:02:58.718Z,100.00
2018-10-16T10:04:25.903Z,100.00
2018-10-16T10:05:53.080Z,100.00
2018-10-16T10:07:20.385Z,100.00
2018-10-16T10:08:47.842Z,100.00
2018-10-16T10:10:15.299Z,100.00
2018-10-16T10:11:42.540Z,100.00
2018-10-16T10:13:10.028Z,100.00
2018-10-16T10:14:37.469Z,100.00
2018-10-16T10:16:04.986Z,100.00
2018-10-16T10:17:32.441Z,100.00
2018-10-16T10:18:59.612Z,100.00
2018-10-16T10:20:26.902Z,100.00
2018-10-16T10:21:54.369Z,100.00
2018-10-16T10:23:21.688Z,100.00
2018-10-16T10:24:49.171Z,100.00
2018-10-16T10:26:16.424Z,100.00
2018-10-16T10:27:43.800Z,100.00
2018-10-16T10:29:11.160Z,100.00
2018-10-16T10:30:38.557Z,100.00
2018-10-16T10:32:05.946Z,100.00
2018-10-16T10:33:32.845Z,100.00
2018-10-16T10:35:00.466Z,100.00
2018-10-16T10:36:27.987Z,100.00
2018-10-16T10:37:55.175Z,100.00
2018-10-16T10:39:22.835Z,100.00
2018-10-16T10:40:49.799Z,100.00
2018-10-16T10:42:16.983Z,100.00
2018-10-16T10:43:44.069Z,100.00
2018-10-16T10:45:11.170Z,100.00
2018-10-16T10:46:38.622Z,100.00
2018-10-16T10:48:06.072Z,100.00
2018-10-16T10:49:33.706Z,100.00
2018-10-16T10:51:01.270Z,100.00
2018-10-16T10:52:28.576Z,100.00
2018-10-16T10:53:55.888Z,100.00
2018-10-16T10:55:23.398Z,100.00
2018-10-16T10:56:50.940Z,100.00
2018-10-16T10:58:18.138Z,100.00
2018-10-16T10:59:45.701Z,100.00
2018-10-16T11:01:13.199Z,100.00
2018-10-16T11:02:40.767Z,100.00
2018-10-16T11:04:08.205Z,100.00
2018-10-16T11:05:35.657Z,100.00
2018-10-16T11:07:03.148Z,100.00
2018-10-16T11:08:30.552Z,100.00
2018-10-16T11:09:58.024Z,100.00
2018-10-16T11:11:25.606Z,98.30
2018-10-16T11:12:52.997Z,96.76
2018-10-16T11:14:20.574Z,95.25
2018-10-16T11:15:48.288Z,93.41
2018-10-16T11:17:15.697Z,91.88
2018-10-16T11:18:42.998Z,91.26
2018-10-16T11:20:10.348Z,90.58
2018-10-16T11:21:37.764Z,89.77
2018-10-16T11:23:05.329Z,86.52
2018-10-16T11:24:32.882Z,84.41
2018-10-16T11:26:00.219Z,81.61
2018-10-16T11:27:27.778Z,80.30
2018-10-16T11:28:55.303Z,81.31
2018-10-16T11:30:22.923Z,81.59
2018-10-16T11:31:50.396Z,78.01
2018-10-16T11:33:17.667Z,79.81
2018-10-16T11:34:45.372Z,81.15
2018-10-16T11:36:12.847Z,82.22
2018-10-16T11:37:40.321Z,81.63
2018-10-16T11:39:08.016Z,80.36
2018-10-16T11:40:35.406Z,78.48
2018-10-16T11:42:02.988Z,79.44
2018-10-16T11:43:30.454Z,79.22
2018-10-16T11:44:58.005Z,78.92
2018-10-16T11:46:25.526Z,78.66
2018-10-16T11:47:53.101Z,78.40
2018-10-16T11:49:20.744Z,75.47
2018-10-16T11:50:48.164Z,74.23
2018-10-16T11:52:15.938Z,71.46
2018-10-16T11:53:43.507Z,74.88
2018-10-16T11:55:10.979Z,76.69
2018-10-16T11:56:38.993Z,74.98
2018-10-16T11:58:06.458Z,76.56
2018-10-16T11:59:33.971Z,77.33
2018-10-16T12:01:01.431Z,75.86
2018-10-16T12:02:28.907Z,72.63
2018-10-16T12:03:56.609Z,74.90
2018-10-16T12:05:24.069Z,75.11
2018-10-16T12:06:51.773Z,74.88
2018-10-16T12:08:19.243Z,76.70
2018-10-16T12:09:46.821Z,75.22
2018-10-16T12:11:14.385Z,75.62
2018-10-16T12:12:41.985Z,77.92
2018-10-16T12:14:09.669Z,79.39
2018-10-16T12:15:37.110Z,79.54
2018-10-16T12:17:04.801Z,80.44
2018-10-16T12:18:32.150Z,79.04
2018-10-16T12:19:59.854Z,79.08
2018-10-16T12:21:27.320Z,78.43
2018-10-16T12:22:54.891Z,76.94
2018-10-16T12:24:22.339Z,77.51
2018-10-16T12:25:49.842Z,80.42
2018-10-16T12:27:17.409Z,77.78
2018-10-16T12:28:44.886Z,78.00
2018-10-16T12:30:12.445Z,79.23
2018-10-16T12:31:39.971Z,79.76
2018-10-16T12:33:07.655Z,80.24
2018-10-16T12:34:35.081Z,81.06
2018-10-16T12:36:02.588Z,80.37
2018-10-16T12:37:30.123Z,77.98
2018-10-16T12:38:57.467Z,79.04
2018-10-16T12:40:25.121Z,77.51
2018-10-16T12:41:52.506Z,78.49
2018-10-16T12:43:20.065Z,79.60
2018-10-16T12:44:47.659Z,80.33
2018-10-16T12:46:15.368Z,81.23
2018-10-16T12:47:42.805Z,80.51
2018-10-16T12:49:10.411Z,80.89
2018-10-16T12:50:38.002Z,81.24
2018-10-16T12:52:05.561Z,80.54
2018-10-16T12:53:33.260Z,80.90
2018-10-16T12:55:00.701Z,82.33
2018-10-16T12:56:28.569Z,82.73
2018-10-16T12:57:56.259Z,81.97
2018-10-16T12:59:23.761Z,81.57
2018-10-16T13:00:51.419Z,80.14
2018-10-16T13:02:22.092Z,80.05
2018-10-16T13:03:46.760Z,80.75
2018-10-16T13:05:14.560Z,82.78
2018-10-16T13:06:41.976Z,85.43
2018-10-16T13:08:09.789Z,84.71
2018-10-16T13:09:37.200Z,85.95
2018-10-16T13:11:04.693Z,86.07
2018-10-16T13:12:32.093Z,87.74
2018-10-16T13:13:59.736Z,87.43
2018-10-16T13:15:27.277Z,86.63
2018-10-16T13:16:54.908Z,87.10
2018-10-16T13:18:22.423Z,86.83
2018-10-16T13:19:50.048Z,87.04
2018-10-16T13:21:17.721Z,87.37
2018-10-16T13:22:45.285Z,87.20
2018-10-16T13:24:12.887Z,87.15
2018-10-16T13:25:40.554Z,87.50
2018-10-16T13:27:07.987Z,85.97
2018-10-16T13:28:35.641Z,87.52
2018-10-16T13:30:03.236Z,87.11
2018-10-16T13:31:30.538Z,89.50
2018-10-16T13:32:58.092Z,90.38
2018-10-16T13:34:25.791Z,91.25
2018-10-16T13:35:53.223Z,94.02
2018-10-16T13:37:20.790Z,95.20
2018-10-16T13:38:48.312Z,93.50
2018-10-16T13:40:16.170Z,93.15
2018-10-16T13:41:43.482Z,92.72
2018-10-16T13:43:11.028Z,91.73
2018-10-16T13:44:38.538Z,93.07
2018-10-16T13:46:06.325Z,93.76
2018-10-16T13:47:33.610Z,94.08
2018-10-16T13:49:01.108Z,94.49
2018-10-16T13:50:28.683Z,94.71
2018-10-16T13:51:56.391Z,97.44
2018-10-16T13:53:23.856Z,96.83
2018-10-16T13:54:51.484Z,96.81
2018-10-16T13:56:19.284Z,97.16
2018-10-16T13:57:46.779Z,97.14
2018-10-16T13:59:14.369Z,98.04
2018-10-16T14:00:42.064Z,98.76
2018-10-16T14:02:09.565Z,98.33
2018-10-16T14:03:37.135Z,98.81
2018-10-16T14:05:04.750Z,100.00
2018-10-16T14:06:32.499Z,100.00
2018-10-16T14:08:00.115Z,100.00
2018-10-16T14:09:27.529Z,100.00
2018-10-16T14:10:55.048Z,100.00
2018-10-16T14:12:22.583Z,100.00
2018-10-16T14:13:50.028Z,100.00
2018-10-16T14:15:17.448Z,100.00
2018-10-16T14:16:44.896Z,100.00
2018-10-16T14:18:12.386Z,100.00
2018-10-16T14:19:39.955Z,100.00
2018-10-16T14:21:07.685Z,100.00
2018-10-16T14:22:35.185Z,100.00
2018-10-16T14:24:02.718Z,100.00
2018-10-16T14:25:30.373Z,100.00
2018-10-16T14:26:57.985Z,100.00
2018-10-16T14:28:25.805Z,100.00
2018-10-16T14:29:53.383Z,100.00
2018-10-16T14:31:20.929Z,100.00
2018-10-16T14:32:48.556Z,100.00
2018-10-16T14:34:16.273Z,100.00
2018-10-16T14:35:43.895Z,100.00
2018-10-16T14:37:11.454Z,100.00
2018-10-16T14:38:39.359Z,100.00
2018-10-16T14:40:07.143Z,100.00
2018-10-16T14:41:34.291Z,100.00
2018-10-16T14:43:01.854Z,100.00
2018-10-16T14:44:29.391Z,100.00
2018-10-16T14:45:56.930Z,100.00
2018-10-16T14:47:24.381Z,100.00
2018-10-16T14:48:51.937Z,100.00
2018-10-16T14:50:19.289Z,100.00
2018-10-16T14:51:46.864Z,100.00
2018-10-16T14:53:14.455Z,100.00
2018-10-16T14:54:42.021Z,100.00
2018-10-16T14:56:09.739Z,100.00
2018-10-16T14:57:37.319Z,100.00
2018-10-16T14:59:04.614Z,100.00
2018-10-16T15:00:32.116Z,100.00
2018-10-16T15:01:59.673Z,100.00
2018-10-16T15:03:27.344Z,100.00
2018-10-16T15:04:54.918Z,100.00
2018-10-16T15:06:22.435Z,100.00
2018-10-16T15:07:49.906Z,100.00
2018-10-16T15:09:17.523Z,100.00
2018-10-16T15:10:45.117Z,100.00
2018-10-16T15:12:12.545Z,100.00
2018-10-16T15:13:40.113Z,100.00
2018-10-16T15:15:07.881Z,100.00
2018-10-16T15:16:35.525Z,100.00
2018-10-16T15:18:03.044Z,100.00
2018-10-16T15:19:30.609Z,100.00
2018-10-16T15:20:58.068Z,100.00
2018-10-16T15:22:25.622Z,100.00
2018-10-16T15:23:53.249Z,100.00
2018-10-16T15:25:20.738Z,100.00
2018-10-16T15:26:48.230Z,100.00
2018-10-16T15:28:15.681Z,100.00
2018-10-16T15:29:42.816Z,100.00
2018-10-16T15:31:09.983Z,100.00
2018-10-16T15:32:37.576Z,100.00
2018-10-16T15:34:05.200Z,100.00
2018-10-16T15:35:32.617Z,100.00
2018-10-16T15:37:00.166Z,100.00
2018-10-16T15:38:27.739Z,100.00
2018-10-16T15:39:55.304Z,100.00
2018-10-16T15:41:22.656Z,100.00
2018-10-16T15:42:50.364Z,100.00
2018-10-16T15:44:17.825Z,100.00
2018-10-16T15:45:45.472Z,100.00
2018-10-16T15:47:12.915Z,100.00
2018-10-16T15:48:40.435Z,100.00
2018-10-16T15:50:08.070Z,100.00
2018-10-16T15:51:35.652Z,100.00
2018-10-16T15:53:03.336Z,100.00
2018-10-16T15:54:30.711Z,100.00
2018-10-16T15:55:58.386Z,100.00
2018-10-16T15:57:26.111Z,100.00
2018-10-16T15:58:53.788Z,100.00
2018-10-16T16:00:21.280Z,100.00
2018-10-16T16:01:48.909Z,100.00
2018-10-16T16:03:16.492Z,100.00
2018-10-16T16:04:43.992Z,100.00
2018-10-16T16:06:11.684Z,100.00
2018-10-16T16:07:39.072Z,100.00
2018-10-16T16:09:06.664Z,100.00
2018-10-16T16:10:34.148Z,100.00
2018-10-16T16:12:01.451Z,100.00
2018-10-16T16:13:28.995Z,100.00
2018-10-16T16:14:56.548Z,100.00
2018-10-16T16:16:23.970Z,100.00
2018-10-16T16:17:51.580Z,100.00
2018-10-16T16:19:19.076Z,100.00
2018-10-16T16:20:46.625Z,100.00
2018-10-16T16:22:14.023Z,100.00
2018-10-16T16:23:41.308Z,100.00
2018-10-16T16:25:08.854Z,100.00
2018-10-16T16:26:36.531Z,100.00
2018-10-16T16:28:04.157Z,100.00
2018-10-16T16:29:31.595Z,100.00
2018-10-16T16:30:59.152Z,100.00
2018-10-16T16:32:26.803Z,100.00
2018-10-16T16:33:54.410Z,100.00
2018-10-16T16:35:21.914Z,100.00
2018-10-16T16:36:49.322Z,100.00
2018-10-16T16:38:16.749Z,100.00
2018-10-16T16:39:44.200Z,100.00
2018-10-16T16:41:11.817Z,100.00
2018-10-16T16:42:39.206Z,100.00
2018-10-16T16:44:06.985Z,100.00
2018-10-16T16:45:34.384Z,100.00
2018-10-16T16:47:01.825Z,100.00
2018-10-16T16:48:29.349Z,100.00
2018-10-16T16:49:57.003Z,100.00
2018-10-16T16:51:24.064Z,100.00
2018-10-16T16:52:51.654Z,100.00
2018-10-16T16:54:19.196Z,100.00
2018-10-16T16:55:46.712Z,100.00
2018-10-16T16:57:14.333Z,100.00
2018-10-16T16:58:41.662Z,100.00
2018-10-16T17:00:09.280Z,100.00
2018-10-16T17:01:36.907Z,100.00
2018-10-16T17:03:04.284Z,100.00
2018-10-16T17:04:32.003Z,100.00
2018-10-16T17:05:59.313Z,100.00
2018-10-16T17:07:26.949Z,100.00
2018-10-16T17:08:54.484Z,100.00
2018-10-16T17:10:21.857Z,100.00
2018-10-16T17:11:49.355Z,100.00
2018-10-16T17:13:16.884Z,100.00
2018-10-16T17:14:44.208Z,100.00
2018-10-16T17:16:11.590Z,100.00
2018-10-16T17:17:39.040Z,100.00
2018-10-16T17:19:06.513Z,100.00
2018-10-16T17:20:33.982Z,100.00
2018-10-16T17:22:01.640Z,100.00
2018-10-16T17:23:29.097Z,100.00
2018-10-16T17:24:56.927Z,100.00
2018-10-16T17:26:24.512Z,100.00
2018-10-16T17:27:51.742Z,100.00
2018-10-16T17:29:19.182Z,100.00
2018-10-16T17:30:46.851Z,100.00
2018-10-16T17:32:14.194Z,100.00
2018-10-16T17:33:41.737Z,100.00
2018-10-16T17:35:09.302Z,100.00
2018-10-16T17:36:36.957Z,100.00
2018-10-16T17:38:04.411Z,100.00
2018-10-16T17:39:32.046Z,100.00
2018-10-16T17:40:59.417Z,100.00
2018-10-16T17:42:26.804Z,100.00
2018-10-16T17:43:54.216Z,100.00
2018-10-16T17:45:21.765Z,100.00
2018-10-16T17:46:49.011Z,100.00
2018-10-16T17:48:16.798Z,100.00
2018-10-16T17:49:44.006Z,100.00
2018-10-16T17:51:11.732Z,100.00
2018-10-16T17:52:38.898Z,100.00
2018-10-16T17:54:06.321Z,100.00
2018-10-16T17:55:33.719Z,100.00
2018-10-16T17:57:01.284Z,100.00
2018-10-16T17:58:28.734Z,100.00
2018-10-16T17:59:56.254Z,100.00
2018-10-16T18:01:23.772Z,100.00
2018-10-16T18:02:51.190Z,100.00
2018-10-16T18:04:18.681Z,100.00
2018-10-16T18:05:46.225Z,100.00
2018-10-16T18:07:13.788Z,100.00
2018-10-16T18:08:41.219Z,100.00
2018-10-16T18:10:08.720Z,100.00
2018-10-16T18:11:36.316Z,100.00
2018-10-16T18:13:03.600Z,100.00
2018-10-16T18:14:31.145Z,100.00
2018-10-16T18:15:58.692Z,100.00